Time;durP1;ratioP1;P1;durP2;ratioP2;P2;SDS_P1;SDS_P2;PMS_P1;PMS_P2;Temp;Humidity;BMP_temperature;BMP_pressure;BME280_temperature;BME280_humidity;BME280_pressure;Samples;Min_cycle;Max_cycle;Signal;HPM_P1;HPM_P2
2021/12/15 00:00:11;;;;;;;7.32;5.82;;;16.20;56.70;;;;;;5114569;28;20091;-37
2021/12/15 00:02:37;;;;;;;7.53;6.32;;;16.20;56.70;;;;;;5115037;28;20024;-37
2021/12/15 00:05:05;;;;;;;7.57;6.45;;;16.20;56.70;;;;;;5114849;28;20015;-36
2021/12/15 00:07:31;;;;;;;6.97;5.93;;;16.10;56.70;;;;;;5114555;28;20028;-36
2021/12/15 00:09:57;;;;;;;7.85;6.55;;;16.10;56.80;;;;;;5115227;28;20045;-36
2021/12/15 00:12:24;;;;;;;6.90;6.13;;;16.10;56.70;;;;;;5114816;28;20027;-36
2021/12/15 00:14:50;;;;;;;6.88;6.03;;;16.10;56.80;;;;;;5114171;28;20024;-36
2021/12/15 00:17:17;;;;;;;7.95;6.50;;;16.10;56.80;;;;;;5113773;28;20103;-36
2021/12/15 00:19:42;;;;;;;7.47;6.22;;;16.10;56.80;;;;;;5114343;28;20027;-36
2021/12/15 00:22:09;;;;;;;6.97;5.57;;;16.10;56.90;;;;;;5096042;28;20016;-37
2021/12/15 00:24:36;;;;;;;7.90;6.45;;;16.10;56.80;;;;;;5095974;28;20087;-37
2021/12/15 00:27:02;;;;;;;6.90;6.20;;;16.10;56.90;;;;;;5114013;28;20061;-37
2021/12/15 00:29:28;;;;;;;7.28;6.07;;;16.10;57.00;;;;;;5113575;28;20051;-37
2021/12/15 00:31:55;;;;;;;6.78;6.07;;;16.10;57.00;;;;;;5114032;28;20038;-37
2021/12/15 00:34:21;;;;;;;6.63;5.80;;;16.10;57.10;;;;;;5113932;28;20065;-37
2021/12/15 00:36:47;;;;;;;7.05;6.35;;;16.10;57.10;;;;;;5114355;28;20116;-37
2021/12/15 00:39:16;;;;;;;6.90;6.00;;;16.10;57.00;;;;;;5113642;28;20031;-38
2021/12/15 00:41:42;;;;;;;7.65;6.35;;;16.00;57.10;;;;;;5113707;28;20404;-38
2021/12/15 00:44:07;;;;;;;7.78;6.50;;;16.10;57.20;;;;;;5096537;28;20068;-38
2021/12/15 00:46:34;;;;;;;7.22;6.40;;;16.10;57.20;;;;;;5114500;28;20012;-38
2021/12/15 00:49:02;;;;;;;7.78;6.50;;;16.00;57.10;;;;;;5095066;28;20012;-38
2021/12/15 00:51:28;;;;;;;6.75;5.97;;;16.00;57.00;;;;;;5113066;28;20031;-38
2021/12/15 00:53:54;;;;;;;7.10;6.40;;;16.00;57.00;;;;;;5094938;28;20043;-38
2021/12/15 00:56:19;;;;;;;7.40;6.22;;;16.00;57.60;;;;;;5113636;28;20012;-38
2021/12/15 00:58:46;;;;;;;6.97;6.10;;;16.00;57.00;;;;;;5113186;28;20466;-39
2021/12/15 01:01:12;;;;;;;7.97;6.30;;;16.10;57.30;;;;;;5114646;28;20504;-39
2021/12/15 01:03:39;;;;;;;6.93;6.18;;;16.10;57.20;;;;;;5117098;28;20008;-40
2021/12/15 01:06:09;;;;;;;7.13;6.13;;;16.10;57.20;;;;;;5117429;28;20015;-40
2021/12/15 01:08:42;;;;;;;7.35;6.07;;;16.00;57.00;;;;;;5117722;28;20004;-39
2021/12/15 01:11:27;;;;;;;7.07;6.30;;;16.00;57.20;;;;;;5117324;28;20020;-39
2021/12/15 01:22:20;;;;;;;7.32;6.05;;;16.00;57.30;;;;;;5098850;28;20508;-40
2021/12/15 01:25:27;;;;;;;6.68;6.00;;;16.00;57.10;;;;;;5116813;28;20020;-39
2021/12/15 01:27:53;;;;;;;7.72;6.15;;;16.00;57.20;;;;;;5117056;28;20083;-40
2021/12/15 01:30:40;;;;;;;7.47;6.15;;;16.00;57.10;;;;;;5117042;28;20019;-40
2021/12/15 01:33:06;;;;;;;7.70;5.97;;;16.00;57.20;;;;;;5117092;28;20069;-40
2021/12/15 01:35:33;;;;;;;10.38;6.57;;;15.90;57.20;;;;;;5116744;28;20035;-40
2021/12/15 01:37:59;;;;;;;8.68;6.43;;;16.00;57.30;;;;;;5116830;28;20007;-40
2021/12/15 01:40:35;;;;;;;7.18;6.47;;;16.00;57.20;;;;;;5116827;28;20111;-40
2021/12/15 01:43:14;;;;;;;7.35;6.53;;;16.00;57.20;;;;;;5116901;28;20011;-43
2021/12/15 01:48:24;;;;;;;7.38;6.38;;;16.00;57.20;;;;;;5116638;28;20593;-40
2021/12/15 01:50:51;;;;;;;7.82;6.57;;;16.00;57.20;;;;;;5116726;28;20024;-41
2021/12/15 01:53:17;;;;;;;6.93;6.22;;;16.00;57.20;;;;;;5116767;28;20020;-42
2021/12/15 01:55:43;;;;;;;7.38;6.43;;;16.00;57.20;;;;;;5116299;28;20432;-40
2021/12/15 01:58:09;;;;;;;7.88;6.45;;;16.00;57.30;;;;;;5116507;28;20024;-40
2021/12/15 02:00:39;;;;;;;8.63;6.63;;;16.00;57.30;;;;;;5116340;28;20024;-40
2021/12/15 02:03:05;;;;;;;7.47;6.22;;;15.90;57.20;;;;;;5115989;28;20012;-44
2021/12/15 02:05:33;;;;;;;7.07;6.38;;;15.90;57.80;;;;;;5115857;28;20031;-44
2021/12/15 02:08:00;;;;;;;6.80;6.10;;;16.00;57.40;;;;;;5115902;28;20011;-41
2021/12/15 02:10:29;;;;;;;7.70;6.40;;;15.90;57.20;;;;;;5116204;28;20424;-42
2021/12/15 02:12:59;;;;;;;8.10;6.60;;;15.90;57.30;;;;;;5115623;28;20027;-45
2021/12/15 02:15:30;;;;;;;7.85;6.82;;;15.90;57.30;;;;;;5116446;28;20012;-46
2021/12/15 02:17:57;;;;;;;7.65;6.78;;;15.90;57.40;;;;;;5116453;28;20034;-45
2021/12/15 02:20:27;;;;;;;8.05;6.88;;;15.90;57.40;;;;;;5116633;28;20027;-46
2021/12/15 02:22:54;;;;;;;7.20;6.22;;;15.90;57.40;;;;;;5116897;28;20018;-43
2021/12/15 02:25:20;;;;;;;8.65;6.60;;;15.90;57.40;;;;;;5116215;28;20012;-43
2021/12/15 02:27:46;;;;;;;7.97;6.72;;;15.90;57.30;;;;;;5116207;28;20022;-43
2021/12/15 02:30:28;;;;;;;7.50;6.70;;;16.00;57.40;;;;;;5115931;28;20027;-42
2021/12/15 02:33:34;;;;;;;8.00;6.65;;;15.90;57.40;;;;;;5116041;28;20044;-45
2021/12/15 02:38:40;;;;;;;8.70;6.55;;;15.90;57.70;;;;;;5115747;28;20084;-41
2021/12/15 02:41:12;;;;;;;8.25;7.00;;;15.90;57.50;;;;;;5115178;28;20469;-41
2021/12/15 02:43:38;;;;;;;7.32;6.55;;;15.90;57.40;;;;;;5115163;28;20015;-41
2021/12/15 02:46:04;;;;;;;7.82;7.03;;;15.90;57.50;;;;;;5115541;28;20008;-43
2021/12/15 02:48:30;;;;;;;8.15;6.63;;;15.90;57.50;;;;;;5115463;28;20008;-41
2021/12/15 02:50:56;;;;;;;9.75;7.20;;;15.90;57.50;;;;;;5080204;28;20482;-41
2021/12/15 02:53:21;;;;;;;9.05;7.05;;;15.90;57.50;;;;;;5096894;28;20172;-41
2021/12/15 02:55:47;;;;;;;7.70;6.88;;;15.90;57.40;;;;;;5115977;28;20015;-41
2021/12/15 02:58:13;;;;;;;7.60;6.63;;;15.90;57.40;;;;;;5115414;28;20090;-40
2021/12/15 03:00:59;;;;;;;8.23;6.75;;;15.90;57.40;;;;;;5115077;28;20482;-40
2021/12/15 03:06:17;;;;;;;7.70;6.68;;;15.90;57.50;;;;;;5115467;28;20474;-41
2021/12/15 03:16:43;;;;;;;7.38;6.50;;;15.90;57.70;;;;;;5115541;28;20046;-43
2021/12/15 03:19:15;;;;;;;7.80;6.72;;;15.90;57.60;;;;;;5115832;28;20042;-41
2021/12/15 03:21:41;;;;;;;9.00;6.88;;;15.90;57.70;;;;;;5115258;28;20035;-41
2021/12/15 03:24:12;;;;;;;7.30;6.38;;;15.90;57.60;;;;;;5114872;28;20019;-40
2021/12/15 03:26:43;;;;;;;;;;;16.00;57.40;;;;;;5114757;28;20012;-40
2021/12/15 03:34:50;;;;;;;8.05;6.53;;;16.30;55.90;;;;;;5115006;28;20100;-42
2021/12/15 03:37:22;;;;;;;7.55;6.63;;;16.50;55.70;;;;;;5114925;28;20020;-41
2021/12/15 03:39:59;;;;;;;7.40;6.57;;;16.50;55.50;;;;;;5114460;28;20521;-41
2021/12/15 03:42:35;;;;;;;6.97;6.15;;;16.60;55.10;;;;;;5114725;28;20019;-41
2021/12/15 03:45:01;;;;;;;7.30;6.30;;;16.70;54.80;;;;;;5114999;28;20014;-41
2021/12/15 03:47:30;;;;;;;8.00;6.40;;;16.80;54.60;;;;;;5114458;28;20499;-42
2021/12/15 03:49:56;;;;;;;6.28;5.68;;;16.90;54.50;;;;;;5114273;28;20477;-40
2021/12/15 03:52:23;;;;;;;7.20;6.47;;;16.90;54.40;;;;;;5114788;28;20099;-41
2021/12/15 03:54:49;;;;;;;7.05;6.35;;;17.00;54.30;;;;;;5114959;28;20113;-41
2021/12/15 03:57:15;;;;;;;7.00;6.30;;;17.00;54.60;;;;;;5114184;28;20024;-41
2021/12/15 03:59:44;;;;;;;7.70;6.55;;;17.10;53.90;;;;;;5114603;28;20030;-40
2021/12/15 04:02:11;;;;;;;7.27;6.57;;;17.20;53.70;;;;;;5114882;28;20012;-42
2021/12/15 04:04:37;;;;;;;6.90;5.88;;;17.30;53.50;;;;;;5114642;28;20008;-42
2021/12/15 04:07:04;;;;;;;6.35;5.70;;;17.30;53.40;;;;;;5114959;28;20070;-41
2021/12/15 04:09:30;;;;;;;6.97;6.00;;;17.40;53.30;;;;;;5096620;28;20481;-41
2021/12/15 04:11:56;;;;;;;6.60;5.90;;;17.40;53.10;;;;;;5097233;28;20028;-41
2021/12/15 04:14:28;;;;;;;7.68;6.15;;;17.50;52.90;;;;;;5115634;28;20073;-41
2021/12/15 04:17:06;;;;;;;6.60;5.90;;;17.50;52.70;;;;;;5097203;28;20419;-41
2021/12/15 04:19:33;;;;;;;7.10;5.82;;;17.70;52.40;;;;;;5114312;28;20114;-43
2021/12/15 04:21:59;;;;;;;6.85;6.10;;;17.70;52.20;;;;;;5114364;28;20141;-42
2021/12/15 04:24:27;;;;;;;6.93;6.10;;;17.80;52.00;;;;;;5095858;28;20065;-41
2021/12/15 04:26:53;;;;;;;6.30;5.70;;;17.90;51.90;;;;;;5113614;28;20024;-42
2021/12/15 04:29:19;;;;;;;6.25;5.57;;;17.90;52.20;;;;;;5113320;28;20015;-41
2021/12/15 04:31:59;;;;;;;6.57;5.82;;;18.00;51.60;;;;;;5113199;28;20016;-41
2021/12/15 04:34:25;;;;;;;6.25;5.65;;;18.00;51.50;;;;;;5114102;28;20014;-41
2021/12/15 04:36:52;;;;;;;6.25;5.50;;;18.10;51.30;;;;;;5078163;28;20537;-41
2021/12/15 04:39:21;;;;;;;6.22;5.55;;;18.20;51.10;;;;;;5114955;28;20024;-41
2021/12/15 04:41:49;;;;;;;6.90;5.93;;;18.20;51.00;;;;;;5115414;28;20068;-42
2021/12/15 04:44:15;;;;;;;6.18;5.57;;;18.30;50.90;;;;;;5114708;28;20011;-42
2021/12/15 04:47:09;;;;;;;6.18;5.40;;;18.30;50.80;;;;;;5114876;28;20016;-42
2021/12/15 04:49:37;;;;;;;6.28;5.65;;;18.40;50.70;;;;;;5114627;28;20047;-41
2021/12/15 04:52:04;;;;;;;5.78;5.18;;;18.40;50.40;;;;;;5095862;28;20115;-41
2021/12/15 04:54:30;;;;;;;5.68;5.15;;;18.50;50.40;;;;;;5113902;28;20141;-42
2021/12/15 04:56:56;;;;;;;6.28;5.22;;;18.50;50.30;;;;;;5113793;28;20043;-43
2021/12/15 04:59:23;;;;;;;7.20;5.53;;;18.50;50.10;;;;;;5113424;28;20020;-41
2021/12/15 05:01:49;;;;;;;6.00;5.35;;;18.60;50.10;;;;;;5095404;28;20022;-42
2021/12/15 05:04:15;;;;;;;6.00;5.40;;;18.60;50.00;;;;;;5114289;28;20004;-41
2021/12/15 05:06:40;;;;;;;5.97;5.22;;;18.70;49.90;;;;;;5096259;28;20024;-44
2021/12/15 05:09:06;;;;;;;6.05;5.45;;;18.70;49.90;;;;;;5114107;28;20008;-43
2021/12/15 05:11:33;;;;;;;5.75;5.18;;;18.70;49.80;;;;;;5095912;28;20032;-41
2021/12/15 05:14:00;;;;;;;5.95;5.35;;;18.70;49.80;;;;;;5114561;28;20073;-43
2021/12/15 05:16:25;;;;;;;5.75;5.20;;;18.70;49.70;;;;;;5115089;28;20055;-41
2021/12/15 05:18:51;;;;;;;6.50;5.55;;;18.80;49.70;;;;;;5096315;28;20066;-43
2021/12/15 05:21:17;;;;;;;6.25;5.65;;;18.80;49.60;;;;;;5114078;28;20548;-41
2021/12/15 05:23:45;;;;;;;5.43;4.93;;;18.80;49.50;;;;;;5112944;28;20012;-41
2021/12/15 05:26:11;;;;;;;6.25;5.50;;;18.80;49.60;;;;;;5113673;28;20113;-41
2021/12/15 05:28:37;;;;;;;5.90;5.10;;;18.80;49.40;;;;;;5113785;28;20012;-41
2021/12/15 05:31:03;;;;;;;5.90;5.30;;;18.80;49.40;;;;;;5113183;28;20022;-41
2021/12/15 05:33:28;;;;;;;6.10;5.20;;;18.90;49.40;;;;;;5113480;28;20011;-43
2021/12/15 05:35:56;;;;;;;6.07;5.35;;;18.90;49.40;;;;;;5112773;28;20505;-41
2021/12/15 05:38:22;;;;;;;6.45;5.30;;;18.90;49.40;;;;;;5113006;28;20477;-41
2021/12/15 05:40:48;;;;;;;5.82;5.22;;;18.90;49.30;;;;;;5112680;28;20031;-45
2021/12/15 05:43:15;;;;;;;5.80;5.20;;;19.00;49.10;;;;;;5112921;28;20141;-41
2021/12/15 05:45:41;;;;;;;6.15;5.28;;;19.00;49.10;;;;;;5113100;28;20091;-41
2021/12/15 05:48:08;;;;;;;7.07;5.13;;;19.00;49.00;;;;;;5114026;28;20570;-41
2021/12/15 05:50:34;;;;;;;5.90;5.40;;;19.10;49.10;;;;;;5116385;28;20477;-41
2021/12/15 05:53:00;;;;;;;6.22;5.15;;;19.20;48.90;;;;;;5116669;28;20020;-42
2021/12/15 05:55:26;;;;;;;5.88;5.10;;;19.10;48.90;;;;;;5116871;28;20027;-41
2021/12/15 05:57:52;;;;;;;7.63;5.53;;;19.20;48.80;;;;;;5117218;28;20428;-42
2021/12/15 06:00:25;;;;;;;5.43;4.93;;;19.20;48.80;;;;;;5099477;28;20026;-42
2021/12/15 06:02:50;;;;;;;5.32;4.78;;;19.20;48.80;;;;;;5118069;28;20024;-43
2021/12/15 06:05:16;;;;;;;6.38;5.25;;;19.20;48.80;;;;;;5100327;28;20365;-42
2021/12/15 06:07:42;;;;;;;5.38;4.88;;;19.20;48.70;;;;;;5099756;28;20018;-42
2021/12/15 06:10:09;;;;;;;5.38;4.88;;;19.20;48.70;;;;;;5117550;28;20022;-43
2021/12/15 06:12:36;;;;;;;5.80;5.10;;;19.20;48.70;;;;;;5117423;28;20026;-42
2021/12/15 06:15:03;;;;;;;5.97;4.95;;;19.20;48.60;;;;;;5099200;28;20100;-41
2021/12/15 06:17:32;;;;;;;5.38;4.85;;;19.30;48.70;;;;;;5116760;28;20048;-42
2021/12/15 06:19:57;;;;;;;5.60;5.10;;;19.30;48.60;;;;;;5117380;28;20027;-42
2021/12/15 06:22:27;;;;;;;5.75;5.15;;;19.30;48.60;;;;;;5117248;28;20098;-42
2021/12/15 06:24:56;;;;;;;5.20;4.70;;;19.30;48.50;;;;;;5116830;28;20016;-41
2021/12/15 06:27:22;;;;;;;5.60;5.10;;;19.30;48.40;;;;;;5116517;28;20024;-41
2021/12/15 06:29:49;;;;;;;5.22;4.72;;;19.40;48.40;;;;;;5116440;28;20038;-42
2021/12/15 06:32:15;;;;;;;5.20;4.70;;;19.40;48.30;;;;;;5116358;28;20069;-43
2021/12/15 06:34:42;;;;;;;5.30;4.80;;;19.40;48.30;;;;;;5097834;28;20049;-41
2021/12/15 06:37:08;;;;;;;5.13;4.63;;;19.40;48.30;;;;;;5116527;28;20039;-41
2021/12/15 06:39:34;;;;;;;5.20;4.70;;;19.40;48.30;;;;;;5116176;28;20472;-42
2021/12/15 06:42:00;;;;;;;5.40;4.90;;;19.40;48.40;;;;;;5116292;28;20007;-42
2021/12/15 06:44:26;;;;;;;5.82;5.22;;;19.40;48.30;;;;;;5098158;28;20094;-42
2021/12/15 07:00:36;;;;;;;5.93;4.80;;;19.50;48.20;;;;;;5098042;28;20051;-46
2021/12/15 07:03:03;;;;;;;5.10;4.60;;;19.50;48.20;;;;;;5114278;28;20047;-42
2021/12/15 07:05:29;;;;;;;5.22;4.72;;;19.50;48.20;;;;;;5115074;28;20035;-42
2021/12/15 07:07:56;;;;;;;5.47;4.90;;;19.50;48.10;;;;;;5115132;28;20016;-44
2021/12/15 07:10:25;;;;;;;5.93;4.80;;;19.60;48.10;;;;;;5114963;28;20054;-44
2021/12/15 07:12:50;;;;;;;5.53;4.30;;;19.60;48.00;;;;;;5114317;28;20042;-42
2021/12/15 07:15:16;;;;;;;6.75;4.63;;;19.60;48.00;;;;;;5094839;28;20417;-44
2021/12/15 07:17:45;;;;;;;9.43;5.20;;;19.60;48.00;;;;;;5113682;28;20039;-41
2021/12/15 07:21:05;;;;;;;5.55;4.75;;;19.60;48.00;;;;;;5078997;28;20119;-42
2021/12/15 07:22:58;;;;;;;6.63;5.30;;;19.60;48.10;;;;;;5098774;28;20028;-42
2021/12/15 07:25:24;;;;;;;8.50;5.15;;;19.60;48.20;;;;;;5095648;28;20100;-45
2021/12/15 07:27:50;;;;;;;6.50;4.95;;;19.50;48.30;;;;;;5097782;28;20023;-42
2021/12/15 07:30:16;;;;;;;7.28;4.95;;;19.50;48.30;;;;;;5114902;28;20132;-45
2021/12/15 07:32:42;;;;;;;6.07;5.03;;;19.50;48.30;;;;;;5115016;28;20022;-45
2021/12/15 07:35:08;;;;;;;7.13;4.85;;;19.50;48.40;;;;;;5114580;28;20015;-47
2021/12/15 07:37:35;;;;;;;7.10;4.82;;;19.50;48.60;;;;;;5114440;28;20466;-46
2021/12/15 07:40:01;;;;;;;7.82;5.07;;;19.40;48.70;;;;;;5096215;28;20038;-47
2021/12/15 07:42:34;;;;;;;8.45;5.10;;;19.30;48.90;;;;;;5114202;28;20024;-45
2021/12/15 07:45:03;;;;;;;7.45;5.43;;;19.30;49.00;;;;;;5113761;28;20499;-43
2021/12/15 07:47:30;;;;;;;8.70;5.30;;;19.30;49.20;;;;;;5114224;28;20023;-46
2021/12/15 07:50:00;;;;;;;8.75;5.35;;;19.30;49.30;;;;;;5095999;28;20047;-42
2021/12/15 07:52:26;;;;;;;10.38;5.00;;;19.20;49.40;;;;;;5114101;28;20018;-42
2021/12/15 07:54:52;;;;;;;6.90;5.30;;;19.20;49.50;;;;;;5113868;28;20019;-44
2021/12/15 07:57:18;;;;;;;6.72;5.38;;;19.20;49.60;;;;;;5113717;28;20035;-42
2021/12/15 07:59:44;;;;;;;6.10;4.90;;;19.20;49.60;;;;;;5113774;28;20027;-48
2021/12/15 08:02:10;;;;;;;6.75;5.60;;;19.20;49.70;;;;;;5078584;28;20024;-46
2021/12/15 08:04:35;;;;;;;9.93;5.20;;;19.20;49.80;;;;;;5113727;28;20020;-43
2021/12/15 08:07:01;;;;;;;8.73;4.90;;;19.20;49.80;;;;;;5113865;28;20111;-42
2021/12/15 08:09:26;;;;;;;8.48;5.03;;;19.10;49.80;;;;;;5114251;28;20028;-43
2021/12/15 08:11:52;;;;;;;5.43;4.93;;;19.20;50.00;;;;;;5113447;28;20047;-44
2021/12/15 08:14:18;;;;;;;8.13;5.07;;;19.10;50.00;;;;;;5113696;28;20027;-43
2021/12/15 08:16:44;;;;;;;7.55;5.20;;;19.10;50.00;;;;;;5095286;28;20054;-42
2021/12/15 08:19:14;;;;;;;7.65;5.18;;;19.10;50.10;;;;;;5113857;28;20063;-43
2021/12/15 08:21:42;;;;;;;;;;;19.10;50.10;;;;;;5113703;28;20022;-39
2021/12/15 08:24:08;;;;;;;6.78;5.05;;;19.10;50.30;;;;;;5113096;28;19899;-43
2021/12/15 08:26:34;;;;;;;7.75;5.22;;;19.10;50.30;;;;;;5113000;28;20529;-43
2021/12/15 08:29:00;;;;;;;7.35;5.22;;;19.10;50.30;;;;;;5113385;28;20015;-42
2021/12/15 08:31:26;;;;;;;5.93;4.80;;;19.10;50.30;;;;;;5095412;28;20022;-46
2021/12/15 08:33:52;;;;;;;8.55;4.80;;;19.10;50.30;;;;;;5113251;28;20007;-43
2021/12/15 08:36:17;;;;;;;8.93;5.50;;;19.10;50.30;;;;;;5113164;28;20019;-44
2021/12/15 08:38:45;;;;;;;8.30;5.13;;;19.20;50.30;;;;;;5112746;28;20470;-44
2021/12/15 08:41:19;;;;;;;7.45;5.20;;;19.20;50.80;;;;;;5113130;28;20027;-44
2021/12/15 08:43:45;;;;;;;11.10;5.43;;;19.10;50.30;;;;;;5112663;28;20073;-37
2021/12/15 08:46:13;;;;;;;7.60;5.38;;;19.10;50.50;;;;;;5094545;28;20024;-37
2021/12/15 08:48:39;;;;;;;6.35;5.30;;;19.10;51.10;;;;;;5112959;28;20007;-37
2021/12/15 08:51:06;;;;;;;9.25;5.65;;;19.10;50.50;;;;;;5094509;28;20508;-37
2021/12/15 08:53:32;;;;;;;6.47;5.18;;;19.10;50.50;;;;;;5094989;28;20066;-37
2021/12/15 08:55:57;;;;;;;6.47;5.05;;;19.10;50.50;;;;;;5095054;28;20063;-37
2021/12/15 08:58:27;;;;;;;7.20;5.35;;;19.10;50.60;;;;;;5094722;28;20474;-37
2021/12/15 09:00:53;;;;;;;6.60;5.43;;;19.10;50.60;;;;;;5094761;28;20160;-37
2021/12/15 09:03:19;;;;;;;6.63;5.40;;;19.10;50.70;;;;;;5095348;28;20131;-37
2021/12/15 09:05:51;;;;;;;8.32;5.50;;;19.10;50.70;;;;;;5095170;28;20011;-37
2021/12/15 09:08:17;;;;;;;7.35;5.43;;;19.10;50.70;;;;;;5095220;28;20457;-37
2021/12/15 09:10:45;;;;;;;6.65;4.90;;;19.10;50.80;;;;;;5095081;28;20012;-37
2021/12/15 09:13:12;;;;;;;8.18;5.32;;;19.10;50.80;;;;;;5112973;28;20012;-37
2021/12/15 09:15:38;;;;;;;7.93;5.47;;;19.10;50.80;;;;;;5112721;28;20142;-37
2021/12/15 09:18:04;;;;;;;8.13;5.68;;;19.10;50.80;;;;;;5113500;28;20067;-37
2021/12/15 09:20:31;;;;;;;6.97;5.38;;;19.10;50.70;;;;;;5112905;28;20470;-37
2021/12/15 09:23:01;;;;;;;7.07;5.43;;;19.10;50.80;;;;;;5098162;28;20015;-38
2021/12/15 09:25:26;;;;;;;;;;;19.10;50.80;;;;;;5117659;28;20012;-37
2021/12/15 09:27:53;;;;;;;8.50;5.82;;;19.10;50.80;;;;;;5117367;28;19903;-38
2021/12/15 09:30:20;;;;;;;7.03;5.45;;;19.10;50.80;;;;;;5100143;28;20081;-38
2021/12/15 09:32:50;;;;;;;7.18;5.20;;;19.10;50.90;;;;;;5099858;28;20073;-37
2021/12/15 09:35:17;;;;;;;8.77;5.63;;;19.20;51.00;;;;;;5118212;28;20020;-40
2021/12/15 09:37:43;;;;;;;8.13;5.53;;;19.10;51.00;;;;;;5099506;28;20027;-38
2021/12/15 09:40:09;;;;;;;7.32;5.53;;;19.10;50.90;;;;;;5117026;28;20020;-38
2021/12/15 09:42:38;;;;;;;7.38;5.15;;;19.10;51.10;;;;;;5116738;28;20012;-37
2021/12/15 10:07:15;;;;;;;6.85;5.30;;;19.10;51.20;;;;;;5097864;28;20020;-40
2021/12/15 10:19:59;;;;;;;8.02;5.70;;;19.20;51.20;;;;;;5099028;28;20035;-40
2021/12/15 10:22:43;;;;;;;6.47;5.32;;;19.20;51.20;;;;;;5115906;28;20008;-40
2021/12/15 10:25:12;;;;;;;7.13;5.35;;;19.20;51.20;;;;;;5115637;28;20015;-39
2021/12/15 10:27:58;;;;;;;7.30;5.55;;;19.20;51.20;;;;;;5115292;28;20111;-40
2021/12/15 10:30:26;;;;;;;6.78;5.38;;;19.20;51.20;;;;;;5115312;28;20011;-39
2021/12/15 10:32:56;;;;;;;8.68;5.28;;;19.20;51.30;;;;;;5115049;28;20390;-40
2021/12/15 10:35:54;;;;;;;7.07;5.60;;;19.20;51.30;;;;;;5115233;28;20022;-40
2021/12/15 10:38:30;;;;;;;6.72;5.40;;;19.20;51.20;;;;;;5111602;28;20064;-40
2021/12/15 10:40:57;;;;;;;7.78;5.85;;;19.20;51.20;;;;;;5115481;28;20024;-40
2021/12/15 10:43:27;;;;;;;6.88;5.18;;;19.20;51.20;;;;;;5115393;28;20008;-40
2021/12/15 10:45:56;;;;;;;9.18;6.07;;;19.20;51.20;;;;;;5115881;28;20012;-39
2021/12/15 10:48:42;;;;;;;7.57;5.33;;;19.20;51.20;;;;;;5115893;28;20073;-39
2021/12/15 10:51:26;;;;;;;5.85;5.25;;;19.20;51.20;;;;;;5097048;28;20397;-40
2021/12/15 10:54:13;;;;;;;7.28;5.45;;;19.20;51.10;;;;;;5115229;28;20031;-39
2021/12/15 10:56:42;;;;;;;9.77;5.47;;;19.30;51.10;;;;;;5115170;28;20055;-39
2021/12/15 10:59:10;;;;;;;10.63;5.80;;;19.20;51.00;;;;;;5096640;28;20081;-43
2021/12/15 11:01:40;;;;;;;9.70;5.30;;;19.30;51.10;;;;;;5097153;28;20004;-40
2021/12/15 11:04:38;;;;;;;7.43;5.47;;;19.30;51.10;;;;;;5115202;28;20016;-41
2021/12/15 11:07:16;;;;;;;7.68;5.97;;;19.30;51.10;;;;;;5115196;28;20012;-39
2021/12/15 11:10:28;;;;;;;7.93;5.72;;;19.30;51.10;;;;;;5115328;28;20028;-39
2021/12/15 11:12:57;;;;;;;6.40;5.28;;;19.30;51.10;;;;;;5110430;28;20074;-39
2021/12/15 11:15:31;;;;;;;6.50;5.22;;;19.30;51.00;;;;;;5115214;28;20066;-39
2021/12/15 11:18:05;;;;;;;6.38;5.05;;;19.30;51.00;;;;;;5114774;28;20030;-40
2021/12/15 11:20:38;;;;;;;6.22;5.25;;;19.30;51.00;;;;;;5114653;28;20011;-39
2021/12/15 11:23:09;;;;;;;7.25;5.32;;;19.30;51.00;;;;;;5114887;28;20016;-39
2021/12/15 11:25:45;;;;;;;6.35;5.25;;;19.30;51.00;;;;;;5115040;28;20016;-41
2021/12/15 11:28:14;;;;;;;6.60;5.20;;;19.30;51.00;;;;;;5114878;28;20019;-39
2021/12/15 11:30:58;;;;;;;8.52;5.25;;;19.30;51.00;;;;;;5114692;28;20019;-40
2021/12/15 11:33:33;;;;;;;6.15;5.07;;;19.30;51.00;;;;;;5114513;28;20020;-39
2021/12/15 11:36:25;;;;;;;5.97;5.28;;;19.30;51.10;;;;;;5114794;28;20091;-39
2021/12/15 11:38:55;;;;;;;8.65;5.45;;;19.20;51.10;;;;;;5114667;28;20023;-39
2021/12/15 11:41:25;;;;;;;6.05;4.95;;;19.20;51.20;;;;;;5096480;28;20061;-41
2021/12/15 11:43:51;;;;;;;7.78;5.38;;;19.10;51.20;;;;;;5114811;28;20038;-41
2021/12/15 11:46:17;;;;;;;6.28;5.20;;;19.20;51.30;;;;;;5114872;28;20012;-42
2021/12/15 11:48:44;;;;;;;6.38;4.95;;;19.10;51.30;;;;;;5114779;28;20024;-41
2021/12/15 11:51:10;;;;;;;5.85;4.82;;;19.10;51.30;;;;;;5096967;28;20085;-42
2021/12/15 11:53:44;;;;;;;8.68;5.30;;;19.10;51.50;;;;;;5095968;28;20408;-42
2021/12/15 11:56:18;;;;;;;7.82;5.43;;;19.00;51.60;;;;;;5114222;28;20027;-41
2021/12/15 11:58:44;;;;;;;5.90;5.00;;;19.00;51.70;;;;;;5114270;28;20437;-42
2021/12/15 12:01:30;;;;;;;6.00;5.00;;;18.90;51.70;;;;;;5096204;28;20038;-41
2021/12/15 12:04:13;;;;;;;5.90;5.30;;;18.90;51.90;;;;;;5099035;28;20030;-41
2021/12/15 12:06:39;;;;;;;5.57;4.90;;;18.80;52.00;;;;;;5114155;28;20016;-40
2021/12/15 12:09:05;;;;;;;7.00;5.35;;;18.90;52.10;;;;;;5114309;28;20145;-42
2021/12/15 12:11:33;;;;;;;8.23;5.25;;;18.80;52.20;;;;;;5113988;28;20069;-42
2021/12/15 12:14:00;;;;;;;6.80;5.22;;;18.80;52.30;;;;;;5095811;28;20492;-40
2021/12/15 12:16:26;;;;;;;8.43;5.45;;;18.70;52.30;;;;;;5113269;28;20126;-40
2021/12/15 12:18:52;;;;;;;6.43;4.90;;;18.70;52.40;;;;;;5113735;28;20032;-41
2021/12/15 12:21:20;;;;;;;6.72;5.18;;;18.70;52.50;;;;;;5113605;28;20062;-41
2021/12/15 12:23:49;;;;;;;6.85;4.90;;;18.60;52.50;;;;;;5113584;28;20015;-41
2021/12/15 12:26:16;;;;;;;5.93;5.00;;;18.60;52.70;;;;;;5095722;28;20489;-40
2021/12/15 12:28:43;;;;;;;6.90;5.38;;;18.60;52.80;;;;;;5113254;28;20020;-41
2021/12/15 12:31:18;;;;;;;5.15;4.60;;;18.50;52.70;;;;;;5113516;28;20015;-41
2021/12/15 12:33:46;;;;;;;7.03;4.88;;;18.50;52.80;;;;;;5113229;28;20015;-42
2021/12/15 12:36:21;;;;;;;6.47;5.15;;;18.40;53.00;;;;;;5095429;28;20032;-41
2021/12/15 12:38:52;;;;;;;6.07;5.00;;;18.40;53.00;;;;;;5113299;28;20071;-41
2021/12/15 12:41:21;;;;;;;8.30;5.43;;;18.50;53.10;;;;;;5113272;28;20066;-40
2021/12/15 12:43:48;;;;;;;7.88;5.05;;;18.40;53.20;;;;;;5113496;28;20020;-42
2021/12/15 12:46:35;;;;;;;5.82;4.80;;;18.30;53.20;;;;;;5113444;28;20041;-42
2021/12/15 13:00:27;;;;;;;11.90;5.45;;;18.20;53.50;;;;;;5117316;28;20060;-43
2021/12/15 13:03:14;;;;;;;8.30;4.75;;;18.20;53.70;;;;;;5117447;28;20142;-43
2021/12/15 13:05:58;;;;;;;8.15;5.07;;;18.20;53.80;;;;;;5117275;28;20050;-42
2021/12/15 13:08:29;;;;;;;9.95;5.03;;;18.20;53.80;;;;;;5116983;28;20023;-42
2021/12/15 13:11:16;;;;;;;9.13;5.18;;;18.10;53.80;;;;;;5117282;28;20053;-42
2021/12/15 13:14:04;;;;;;;7.80;4.90;;;18.10;53.90;;;;;;5117234;28;20024;-42
2021/12/15 13:16:33;;;;;;;6.65;4.75;;;18.10;53.90;;;;;;5116726;28;20402;-42
2021/12/15 13:19:20;;;;;;;8.00;4.80;;;18.10;53.90;;;;;;5117200;28;20027;-43
2021/12/15 13:30:42;;;;;;;9.60;5.40;;;18.10;53.90;;;;;;5117324;28;20519;-42
2021/12/15 13:33:16;;;;;;;8.40;5.00;;;18.10;53.90;;;;;;5116775;28;20034;-42
2021/12/15 13:35:44;;;;;;;9.45;5.45;;;18.00;54.00;;;;;;5116901;28;20024;-42
2021/12/15 13:38:10;;;;;;;9.43;5.38;;;18.00;54.10;;;;;;5116887;28;20043;-42
2021/12/15 13:40:56;;;;;;;8.77;4.93;;;18.00;54.20;;;;;;5116640;28;20397;-41
2021/12/15 13:43:44;;;;;;;9.70;4.60;;;17.90;54.50;;;;;;5116816;28;20039;-42
2021/12/15 13:46:27;;;;;;;7.57;4.78;;;17.80;54.60;;;;;;5116338;28;20023;-43
2021/12/15 13:49:28;;;;;;;8.90;4.97;;;17.80;54.70;;;;;;5116370;28;20015;-42
2021/12/15 13:52:17;;;;;;;7.93;4.80;;;17.70;54.70;;;;;;5098359;28;20028;-41
2021/12/15 13:54:45;;;;;;;7.60;4.80;;;17.80;54.80;;;;;;5116465;28;20032;-42
2021/12/15 13:57:12;;;;;;;7.40;5.10;;;17.70;54.80;;;;;;5116079;28;20477;-44
2021/12/15 13:59:46;;;;;;;6.80;4.50;;;17.70;54.90;;;;;;5116335;28;20035;-43
2021/12/15 14:02:16;;;;;;;9.15;5.50;;;17.70;54.90;;;;;;5116246;28;20019;-44
2021/12/15 14:04:49;;;;;;;5.32;4.50;;;17.70;55.00;;;;;;5115920;28;20069;-43
2021/12/15 14:07:30;;;;;;;10.50;4.93;;;17.60;55.10;;;;;;5116263;28;20018;-41
2021/12/15 14:10:18;;;;;;;8.07;4.90;;;17.60;55.20;;;;;;5115069;28;20103;-44
2021/12/15 14:12:49;;;;;;;7.15;4.80;;;17.60;55.20;;;;;;5098990;28;20051;-43
2021/12/15 14:15:35;;;;;;;9.13;5.03;;;17.60;55.30;;;;;;5114383;28;20486;-41
2021/12/15 14:18:25;;;;;;;8.57;5.03;;;17.60;55.30;;;;;;5115878;28;20024;-42
2021/12/15 14:20:56;;;;;;;8.68;4.57;;;17.60;55.20;;;;;;5115784;28;20486;-42
2021/12/15 14:23:27;;;;;;;6.55;4.45;;;17.60;55.20;;;;;;5115880;28;20011;-42
2021/12/15 14:25:54;;;;;;;7.07;4.55;;;17.50;55.30;;;;;;5115591;28;20466;-43
2021/12/15 14:28:40;;;;;;;5.70;4.65;;;17.60;55.50;;;;;;5097670;28;20139;-42
2021/12/15 14:31:21;;;;;;;6.68;4.60;;;17.50;55.50;;;;;;5116145;28;20029;-42
2021/12/15 14:33:54;;;;;;;8.85;4.80;;;17.40;55.60;;;;;;5115563;28;20086;-42
2021/12/15 14:36:46;;;;;;;6.30;4.50;;;17.50;55.70;;;;;;5115645;28;20073;-43
2021/12/15 14:39:15;;;;;;;8.52;4.93;;;17.50;55.70;;;;;;5115664;28;20027;-43